sensor_id;sensor_type;location;lat;lon;timestamp;temperature;humidity
13976;DHT22;7062;49.792;9.946;2022-10-17T00:01:21;14.50;99.90
13976;DHT22;7062;49.792;9.946;2022-10-17T00:03:47;14.50;99.90
13976;DHT22;7062;49.792;9.946;2022-10-17T00:06:13;14.60;99.90
13976;DHT22;7062;49.792;9.946;2022-10-17T00:08:40;14.50;99.90
13976;DHT22;7062;49.792;9.946;2022-10-17T00:11:17;14.50;99.90
13976;DHT22;7062;49.792;9.946;2022-10-17T00:13:44;14.40;99.90
13976;DHT22;7062;49.792;9.946;2022-10-17T00:16:11;14.40;99.90
13976;DHT22;7062;49.792;9.946;2022-10-17T00:18:36;14.40;99.90
13976;DHT22;7062;49.792;9.946;2022-10-17T00:21:02;14.40;99.90
13976;DHT22;7062;49.792;9.946;2022-10-17T00:23:28;14.40;99.90
13976;DHT22;7062;49.792;9.946;2022-10-17T00:26:02;14.40;99.90
13976;DHT22;7062;49.792;9.946;2022-10-17T00:28:29;14.40;99.90
13976;DHT22;7062;49.792;9.946;2022-10-17T00:30:56;14.40;99.90
13976;DHT22;7062;49.792;9.946;2022-10-17T00:33:22;14.40;99.90
13976;DHT22;7062;49.792;9.946;2022-10-17T00:35:48;14.40;99.90
13976;DHT22;7062;49.792;9.946;2022-10-17T00:38:13;14.30;99.90
13976;DHT22;7062;49.792;9.946;2022-10-17T00:40:39;14.30;99.90
13976;DHT22;7062;49.792;9.946;2022-10-17T00:43:14;14.40;99.90
13976;DHT22;7062;49.792;9.946;2022-10-17T00:45:41;14.40;99.90
13976;DHT22;7062;49.792;9.946;2022-10-17T00:48:08;14.40;99.90
13976;DHT22;7062;49.792;9.946;2022-10-17T00:50:37;14.30;99.90
13976;DHT22;7062;49.792;9.946;2022-10-17T00:53:04;14.30;99.90
13976;DHT22;7062;49.792;9.946;2022-10-17T00:55:33;14.20;99.90
13976;DHT22;7062;49.792;9.946;2022-10-17T00:58:02;14.20;99.90
13976;DHT22;7062;49.792;9.946;2022-10-17T01:00:28;14.30;99.90
13976;DHT22;7062;49.792;9.946;2022-10-17T01:02:54;14.20;99.90
13976;DHT22;7062;49.792;9.946;2022-10-17T01:05:20;14.20;99.90
13976;DHT22;7062;49.792;9.946;2022-10-17T01:07:48;14.30;99.90
13976;DHT22;7062;49.792;9.946;2022-10-17T01:10:14;14.30;99.90
13976;DHT22;7062;49.792;9.946;2022-10-17T01:18:12;14.40;99.90
13976;DHT22;7062;49.792;9.946;2022-10-17T01:32:24;14.20;99.90
13976;DHT22;7062;49.792;9.946;2022-10-17T01:34:54;14.20;99.90
13976;DHT22;7062;49.792;9.946;2022-10-17T01:37:36;14.10;99.90
13976;DHT22;7062;49.792;9.946;2022-10-17T01:42:44;14.10;99.90
13976;DHT22;7062;49.792;9.946;2022-10-17T01:45:21;14.10;99.90
13976;DHT22;7062;49.792;9.946;2022-10-17T01:47:50;14.00;99.90
13976;DHT22;7062;49.792;9.946;2022-10-17T01:50:27;14.00;99.90
13976;DHT22;7062;49.792;9.946;2022-10-17T01:53:00;14.00;99.90
13976;DHT22;7062;49.792;9.946;2022-10-17T01:55:31;14.00;99.90
13976;DHT22;7062;49.792;9.946;2022-10-17T01:58:35;13.90;99.90
13976;DHT22;7062;49.792;9.946;2022-10-17T02:00:53;13.80;99.90
13976;DHT22;7062;49.792;9.946;2022-10-17T02:03:21;13.90;99.90
13976;DHT22;7062;49.792;9.946;2022-10-17T02:05:47;13.90;99.90
13976;DHT22;7062;49.792;9.946;2022-10-17T02:08:14;13.90;99.90
13976;DHT22;7062;49.792;9.946;2022-10-17T02:10:59;13.80;99.90
13976;DHT22;7062;49.792;9.946;2022-10-17T02:13:35;13.90;99.90
13976;DHT22;7062;49.792;9.946;2022-10-17T02:21:07;13.60;99.90
13976;DHT22;7062;49.792;9.946;2022-10-17T02:26:20;13.50;99.90
13976;DHT22;7062;49.792;9.946;2022-10-17T02:29:08;13.50;99.90
13976;DHT22;7062;49.792;9.946;2022-10-17T02:31:43;13.50;99.90
13976;DHT22;7062;49.792;9.946;2022-10-17T02:34:23;13.60;99.90
13976;DHT22;7062;49.792;9.946;2022-10-17T02:36:57;13.50;99.90
13976;DHT22;7062;49.792;9.946;2022-10-17T02:39:24;13.50;99.90
13976;DHT22;7062;49.792;9.946;2022-10-17T02:41:52;13.40;99.90
13976;DHT22;7062;49.792;9.946;2022-10-17T02:44:20;13.40;99.90
13976;DHT22;7062;49.792;9.946;2022-10-17T02:46:51;13.50;99.90
13976;DHT22;7062;49.792;9.946;2022-10-17T02:49:40;13.40;99.90
13976;DHT22;7062;49.792;9.946;2022-10-17T02:52:24;13.40;99.90
13976;DHT22;7062;49.792;9.946;2022-10-17T02:54:56;13.50;99.90
13976;DHT22;7062;49.792;9.946;2022-10-17T02:57:30;13.50;99.90
13976;DHT22;7062;49.792;9.946;2022-10-17T03:00:00;13.50;99.90
13976;DHT22;7062;49.792;9.946;2022-10-17T03:02:26;13.50;99.90
13976;DHT22;7062;49.792;9.946;2022-10-17T03:04:52;13.40;99.90
13976;DHT22;7062;49.792;9.946;2022-10-17T03:07:18;13.40;99.90
13976;DHT22;7062;49.792;9.946;2022-10-17T03:09:43;13.40;99.90
13976;DHT22;7062;49.792;9.946;2022-10-17T03:12:09;13.50;99.90
13976;DHT22;7062;49.792;9.946;2022-10-17T03:14:35;13.50;99.90
13976;DHT22;7062;49.792;9.946;2022-10-17T03:17:00;13.50;99.90
13976;DHT22;7062;49.792;9.946;2022-10-17T03:19:26;13.50;99.90
13976;DHT22;7062;49.792;9.946;2022-10-17T03:21:52;13.40;99.90
13976;DHT22;7062;49.792;9.946;2022-10-17T03:24:17;13.40;99.90
13976;DHT22;7062;49.792;9.946;2022-10-17T03:26:43;13.50;99.90
13976;DHT22;7062;49.792;9.946;2022-10-17T03:29:09;13.50;99.90
13976;DHT22;7062;49.792;9.946;2022-10-17T03:31:35;13.30;99.90
13976;DHT22;7062;49.792;9.946;2022-10-17T03:34:01;13.20;99.90
13976;DHT22;7062;49.792;9.946;2022-10-17T03:36:27;13.10;99.90
13976;DHT22;7062;49.792;9.946;2022-10-17T03:38:53;13.00;99.90
13976;DHT22;7062;49.792;9.946;2022-10-17T03:41:19;13.00;99.90
13976;DHT22;7062;49.792;9.946;2022-10-17T03:43:44;13.10;99.90
13976;DHT22;7062;49.792;9.946;2022-10-17T03:46:10;13.20;99.90
13976;DHT22;7062;49.792;9.946;2022-10-17T03:48:36;13.20;99.90
13976;DHT22;7062;49.792;9.946;2022-10-17T03:51:04;13.20;99.90
13976;DHT22;7062;49.792;9.946;2022-10-17T03:53:30;13.30;99.90
13976;DHT22;7062;49.792;9.946;2022-10-17T03:56:07;13.30;99.90
13976;DHT22;7062;49.792;9.946;2022-10-17T03:58:32;13.30;99.90
13976;DHT22;7062;49.792;9.946;2022-10-17T04:01:03;13.20;99.90
13976;DHT22;7062;49.792;9.946;2022-10-17T04:03:29;13.20;99.90
13976;DHT22;7062;49.792;9.946;2022-10-17T04:06:00;13.20;99.90
13976;DHT22;7062;49.792;9.946;2022-10-17T04:08:28;13.20;99.90
13976;DHT22;7062;49.792;9.946;2022-10-17T04:11:00;13.20;99.90
13976;DHT22;7062;49.792;9.946;2022-10-17T04:13:27;13.20;99.90
13976;DHT22;7062;49.792;9.946;2022-10-17T04:15:58;13.20;99.90
13976;DHT22;7062;49.792;9.946;2022-10-17T04:18:24;13.10;99.90
13976;DHT22;7062;49.792;9.946;2022-10-17T04:20:50;13.00;99.90
13976;DHT22;7062;49.792;9.946;2022-10-17T04:23:16;13.10;99.90
13976;DHT22;7062;49.792;9.946;2022-10-17T04:25:42;13.30;99.90
13976;DHT22;7062;49.792;9.946;2022-10-17T04:28:08;13.20;99.90
13976;DHT22;7062;49.792;9.946;2022-10-17T04:30:33;13.20;99.90
13976;DHT22;7062;49.792;9.946;2022-10-17T04:32:59;13.20;99.90
13976;DHT22;7062;49.792;9.946;2022-10-17T04:35:24;13.20;99.90
13976;DHT22;7062;49.792;9.946;2022-10-17T04:37:50;13.20;99.90
13976;DHT22;7062;49.792;9.946;2022-10-17T04:40:16;13.30;99.90
13976;DHT22;7062;49.792;9.946;2022-10-17T04:42:41;13.20;99.90
13976;DHT22;7062;49.792;9.946;2022-10-17T04:45:07;13.20;99.90
13976;DHT22;7062;49.792;9.946;2022-10-17T04:47:33;13.10;99.90
13976;DHT22;7062;49.792;9.946;2022-10-17T04:49:59;13.10;99.90
13976;DHT22;7062;49.792;9.946;2022-10-17T04:52:24;13.00;99.90
13976;DHT22;7062;49.792;9.946;2022-10-17T04:54:50;13.00;99.90
13976;DHT22;7062;49.792;9.946;2022-10-17T04:57:17;12.90;99.90
13976;DHT22;7062;49.792;9.946;2022-10-17T04:59:43;12.80;99.90
13976;DHT22;7062;49.792;9.946;2022-10-17T05:02:08;12.70;99.90
13976;DHT22;7062;49.792;9.946;2022-10-17T05:04:34;12.70;99.90
13976;DHT22;7062;49.792;9.946;2022-10-17T05:07:00;12.70;99.90
13976;DHT22;7062;49.792;9.946;2022-10-17T05:09:26;12.80;99.90
13976;DHT22;7062;49.792;9.946;2022-10-17T05:11:53;12.80;99.90
13976;DHT22;7062;49.792;9.946;2022-10-17T05:14:19;12.80;99.90
13976;DHT22;7062;49.792;9.946;2022-10-17T05:16:44;12.90;99.90
13976;DHT22;7062;49.792;9.946;2022-10-17T05:19:10;12.90;99.90
13976;DHT22;7062;49.792;9.946;2022-10-17T05:21:36;12.90;99.90
13976;DHT22;7062;49.792;9.946;2022-10-17T05:24:06;12.90;99.90
13976;DHT22;7062;49.792;9.946;2022-10-17T05:26:32;12.90;99.90
13976;DHT22;7062;49.792;9.946;2022-10-17T05:28:59;12.90;99.90
13976;DHT22;7062;49.792;9.946;2022-10-17T05:31:27;12.90;99.90
13976;DHT22;7062;49.792;9.946;2022-10-17T05:33:53;12.80;99.90
13976;DHT22;7062;49.792;9.946;2022-10-17T05:36:18;12.70;99.90
13976;DHT22;7062;49.792;9.946;2022-10-17T05:38:48;12.70;99.90
13976;DHT22;7062;49.792;9.946;2022-10-17T05:41:14;12.70;99.90
13976;DHT22;7062;49.792;9.946;2022-10-17T05:43:40;12.60;99.90
13976;DHT22;7062;49.792;9.946;2022-10-17T05:46:05;12.50;99.90
13976;DHT22;7062;49.792;9.946;2022-10-17T05:48:31;12.40;99.90
13976;DHT22;7062;49.792;9.946;2022-10-17T05:51:01;12.40;99.90
13976;DHT22;7062;49.792;9.946;2022-10-17T05:53:32;12.30;99.90
13976;DHT22;7062;49.792;9.946;2022-10-17T05:56:00;12.30;99.90
13976;DHT22;7062;49.792;9.946;2022-10-17T05:58:26;12.30;99.90
13976;DHT22;7062;49.792;9.946;2022-10-17T06:01:03;12.40;99.90
13976;DHT22;7062;49.792;9.946;2022-10-17T06:03:30;12.40;99.90
13976;DHT22;7062;49.792;9.946;2022-10-17T06:05:56;12.60;99.90
13976;DHT22;7062;49.792;9.946;2022-10-17T06:08:21;12.50;99.90
13976;DHT22;7062;49.792;9.946;2022-10-17T06:10:50;12.60;99.90
13976;DHT22;7062;49.792;9.946;2022-10-17T06:13:17;12.60;99.90
13976;DHT22;7062;49.792;9.946;2022-10-17T06:15:43;12.60;99.90
13976;DHT22;7062;49.792;9.946;2022-10-17T06:18:10;12.70;99.90
13976;DHT22;7062;49.792;9.946;2022-10-17T06:20:37;12.70;99.90
13976;DHT22;7062;49.792;9.946;2022-10-17T06:23:03;12.60;99.90
13976;DHT22;7062;49.792;9.946;2022-10-17T06:25:32;12.60;99.90
13976;DHT22;7062;49.792;9.946;2022-10-17T06:27:58;12.60;99.90
13976;DHT22;7062;49.792;9.946;2022-10-17T06:30:24;12.60;99.90
13976;DHT22;7062;49.792;9.946;2022-10-17T06:32:51;13.00;99.90
13976;DHT22;7062;49.792;9.946;2022-10-17T06:35:17;12.70;99.90
13976;DHT22;7062;49.792;9.946;2022-10-17T06:37:43;12.80;99.90
13976;DHT22;7062;49.792;9.946;2022-10-17T06:40:10;12.70;99.90
13976;DHT22;7062;49.792;9.946;2022-10-17T06:42:37;12.80;99.90
13976;DHT22;7062;49.792;9.946;2022-10-17T06:45:04;12.80;99.90
13976;DHT22;7062;49.792;9.946;2022-10-17T06:47:29;12.80;99.90
13976;DHT22;7062;49.792;9.946;2022-10-17T06:49:55;12.80;99.90
13976;DHT22;7062;49.792;9.946;2022-10-17T06:52:21;12.90;99.90
13976;DHT22;7062;49.792;9.946;2022-10-17T06:54:46;12.90;99.90
13976;DHT22;7062;49.792;9.946;2022-10-17T06:57:12;13.00;99.90
13976;DHT22;7062;49.792;9.946;2022-10-17T06:59:38;12.90;99.90
13976;DHT22;7062;49.792;9.946;2022-10-17T07:02:03;12.90;99.90
13976;DHT22;7062;49.792;9.946;2022-10-17T07:04:30;13.00;99.90
13976;DHT22;7062;49.792;9.946;2022-10-17T07:06:55;13.10;99.90
13976;DHT22;7062;49.792;9.946;2022-10-17T07:09:21;13.20;99.90
13976;DHT22;7062;49.792;9.946;2022-10-17T07:11:47;13.30;99.90
13976;DHT22;7062;49.792;9.946;2022-10-17T07:14:13;13.30;99.90
13976;DHT22;7062;49.792;9.946;2022-10-17T07:16:38;13.30;99.90
13976;DHT22;7062;49.792;9.946;2022-10-17T07:19:04;13.50;99.90
13976;DHT22;7062;49.792;9.946;2022-10-17T07:21:30;13.60;99.90
13976;DHT22;7062;49.792;9.946;2022-10-17T07:23:55;13.70;99.90
13976;DHT22;7062;49.792;9.946;2022-10-17T07:26:21;13.80;99.90
13976;DHT22;7062;49.792;9.946;2022-10-17T07:28:52;13.80;99.90
13976;DHT22;7062;49.792;9.946;2022-10-17T07:31:19;13.90;99.90
13976;DHT22;7062;49.792;9.946;2022-10-17T07:33:45;14.00;99.90
13976;DHT22;7062;49.792;9.946;2022-10-17T07:36:12;14.10;99.90
13976;DHT22;7062;49.792;9.946;2022-10-17T07:38:38;14.20;99.90
13976;DHT22;7062;49.792;9.946;2022-10-17T07:41:06;14.40;99.90
13976;DHT22;7062;49.792;9.946;2022-10-17T07:43:32;14.60;99.90
13976;DHT22;7062;49.792;9.946;2022-10-17T07:45:59;14.70;99.90
13976;DHT22;7062;49.792;9.946;2022-10-17T07:48:26;14.70;99.90
13976;DHT22;7062;49.792;9.946;2022-10-17T07:50:51;14.80;99.90
13976;DHT22;7062;49.792;9.946;2022-10-17T07:53:17;14.90;99.90
13976;DHT22;7062;49.792;9.946;2022-10-17T07:55:43;15.00;99.90
13976;DHT22;7062;49.792;9.946;2022-10-17T07:58:11;15.10;99.90
13976;DHT22;7062;49.792;9.946;2022-10-17T08:00:37;15.20;99.90
13976;DHT22;7062;49.792;9.946;2022-10-17T08:03:03;15.40;99.90
13976;DHT22;7062;49.792;9.946;2022-10-17T08:05:29;15.50;99.90
13976;DHT22;7062;49.792;9.946;2022-10-17T08:07:55;15.60;99.90
13976;DHT22;7062;49.792;9.946;2022-10-17T08:10:21;15.60;99.90
13976;DHT22;7062;49.792;9.946;2022-10-17T08:12:52;15.70;99.90
13976;DHT22;7062;49.792;9.946;2022-10-17T08:15:18;15.90;99.90
13976;DHT22;7062;49.792;9.946;2022-10-17T08:17:44;16.20;99.90
13976;DHT22;7062;49.792;9.946;2022-10-17T08:20:10;16.80;99.90
13976;DHT22;7062;49.792;9.946;2022-10-17T08:22:36;17.60;99.90
13976;DHT22;7062;49.792;9.946;2022-10-17T08:25:02;18.70;99.90
13976;DHT22;7062;49.792;9.946;2022-10-17T08:27:27;19.50;99.90
13976;DHT22;7062;49.792;9.946;2022-10-17T08:29:53;20.50;99.90
13976;DHT22;7062;49.792;9.946;2022-10-17T08:32:24;21.10;99.90
13976;DHT22;7062;49.792;9.946;2022-10-17T08:34:51;21.50;99.90
13976;DHT22;7062;49.792;9.946;2022-10-17T08:37:17;22.10;99.90
13976;DHT22;7062;49.792;9.946;2022-10-17T08:39:43;23.70;99.90
13976;DHT22;7062;49.792;9.946;2022-10-17T08:47:40;25.40;99.90
13976;DHT22;7062;49.792;9.946;2022-10-17T08:50:21;25.90;99.90
13976;DHT22;7062;49.792;9.946;2022-10-17T08:52:52;25.60;99.90
13976;DHT22;7062;49.792;9.946;2022-10-17T08:55:36;24.50;99.90
13976;DHT22;7062;49.792;9.946;2022-10-17T08:58:09;23.60;99.90
13976;DHT22;7062;49.792;9.946;2022-10-17T09:00:37;23.80;99.90
13976;DHT22;7062;49.792;9.946;2022-10-17T09:03:15;25.10;99.90
13976;DHT22;7062;49.792;9.946;2022-10-17T09:05:55;26.30;99.90
13976;DHT22;7062;49.792;9.946;2022-10-17T09:08:36;27.10;99.90
13976;DHT22;7062;49.792;9.946;2022-10-17T09:17:02;29.80;99.90
13976;DHT22;7062;49.792;9.946;2022-10-17T09:19:35;30.00;99.90
13976;DHT22;7062;49.792;9.946;2022-10-17T09:22:15;30.30;99.90
13976;DHT22;7062;49.792;9.946;2022-10-17T09:24:52;30.10;99.90
13976;DHT22;7062;49.792;9.946;2022-10-17T09:30:25;30.70;99.90
13976;DHT22;7062;49.792;9.946;2022-10-17T09:32:52;30.70;99.90
13976;DHT22;7062;49.792;9.946;2022-10-17T09:35:19;30.70;99.90
13976;DHT22;7062;49.792;9.946;2022-10-17T09:37:46;30.70;99.90
13976;DHT22;7062;49.792;9.946;2022-10-17T09:40:24;31.80;99.30
13976;DHT22;7062;49.792;9.946;2022-10-17T09:42:51;31.40;98.50
13976;DHT22;7062;49.792;9.946;2022-10-17T09:45:20;31.40;98.30
13976;DHT22;7062;49.792;9.946;2022-10-17T09:48:10;31.40;98.30
13976;DHT22;7062;49.792;9.946;2022-10-17T09:50:39;31.70;97.70
13976;DHT22;7062;49.792;9.946;2022-10-17T09:56:17;33.20;96.60
13976;DHT22;7062;49.792;9.946;2022-10-17T09:58:46;34.00;95.10
13976;DHT22;7062;49.792;9.946;2022-10-17T10:03:46;33.90;94.80
13976;DHT22;7062;49.792;9.946;2022-10-17T10:06:16;34.60;94.30
13976;DHT22;7062;49.792;9.946;2022-10-17T10:08:55;35.00;93.00
13976;DHT22;7062;49.792;9.946;2022-10-17T10:11:54;34.70;93.50
13976;DHT22;7062;49.792;9.946;2022-10-17T10:14:35;36.00;92.70
13976;DHT22;7062;49.792;9.946;2022-10-17T10:17:03;36.10;91.80
13976;DHT22;7062;49.792;9.946;2022-10-17T10:19:30;35.70;91.10
13976;DHT22;7062;49.792;9.946;2022-10-17T10:21:58;33.80;92.40
13976;DHT22;7062;49.792;9.946;2022-10-17T10:24:24;33.30;93.20
13976;DHT22;7062;49.792;9.946;2022-10-17T10:26:52;33.50;93.10
13976;DHT22;7062;49.792;9.946;2022-10-17T10:32:15;34.50;93.20
13976;DHT22;7062;49.792;9.946;2022-10-17T10:34:53;35.40;92.30
13976;DHT22;7062;49.792;9.946;2022-10-17T10:37:29;36.00;91.70
13976;DHT22;7062;49.792;9.946;2022-10-17T10:40:00;36.20;91.10
13976;DHT22;7062;49.792;9.946;2022-10-17T10:42:38;36.20;91.00
13976;DHT22;7062;49.792;9.946;2022-10-17T10:45:20;37.10;90.60
13976;DHT22;7062;49.792;9.946;2022-10-17T10:47:54;37.60;90.00
13976;DHT22;7062;49.792;9.946;2022-10-17T10:50:32;39.10;88.30
13976;DHT22;7062;49.792;9.946;2022-10-17T10:56:02;41.00;80.60
13976;DHT22;7062;49.792;9.946;2022-10-17T10:58:44;41.40;80.20
13976;DHT22;7062;49.792;9.946;2022-10-17T11:01:21;41.00;79.00
13976;DHT22;7062;49.792;9.946;2022-10-17T11:06:37;40.30;79.10
13976;DHT22;7062;49.792;9.946;2022-10-17T11:09:34;40.90;78.20
13976;DHT22;7062;49.792;9.946;2022-10-17T11:12:10;41.40;77.90
13976;DHT22;7062;49.792;9.946;2022-10-17T11:22:31;41.80;75.00
13976;DHT22;7062;49.792;9.946;2022-10-17T11:27:36;40.30;75.10
13976;DHT22;7062;49.792;9.946;2022-10-17T11:30:02;38.50;77.00
13976;DHT22;7062;49.792;9.946;2022-10-17T11:32:36;37.90;78.20
13976;DHT22;7062;49.792;9.946;2022-10-17T11:35:07;38.30;78.90
13976;DHT22;7062;49.792;9.946;2022-10-17T11:37:45;39.40;77.30
13976;DHT22;7062;49.792;9.946;2022-10-17T11:40:18;40.50;74.50
13976;DHT22;7062;49.792;9.946;2022-10-17T11:43:09;40.70;74.80
13976;DHT22;7062;49.792;9.946;2022-10-17T11:45:42;40.80;73.90
13976;DHT22;7062;49.792;9.946;2022-10-17T11:48:20;40.60;73.30
13976;DHT22;7062;49.792;9.946;2022-10-17T11:50:50;41.30;73.20
13976;DHT22;7062;49.792;9.946;2022-10-17T11:53:21;42.10;71.80
13976;DHT22;7062;49.792;9.946;2022-10-17T11:55:49;42.70;70.50
13976;DHT22;7062;49.792;9.946;2022-10-17T11:58:51;43.40;69.40
13976;DHT22;7062;49.792;9.946;2022-10-17T12:01:47;42.50;69.40
13976;DHT22;7062;49.792;9.946;2022-10-17T12:11:58;41.30;68.70
13976;DHT22;7062;49.792;9.946;2022-10-17T12:19:46;40.90;68.50
13976;DHT22;7062;49.792;9.946;2022-10-17T12:24:57;39.10;69.60
13976;DHT22;7062;49.792;9.946;2022-10-17T12:27:41;38.00;70.70
13976;DHT22;7062;49.792;9.946;2022-10-17T12:32:38;34.90;72.00
13976;DHT22;7062;49.792;9.946;2022-10-17T12:35:22;32.80;75.40
13976;DHT22;7062;49.792;9.946;2022-10-17T12:45:51;35.20;72.20
13976;DHT22;7062;49.792;9.946;2022-10-17T12:51:19;36.50;70.70
13976;DHT22;7062;49.792;9.946;2022-10-17T12:56:17;37.70;68.80
13976;DHT22;7062;49.792;9.946;2022-10-17T12:58:52;37.80;68.70
13976;DHT22;7062;49.792;9.946;2022-10-17T13:01:28;37.90;68.50
13976;DHT22;7062;49.792;9.946;2022-10-17T13:03:55;37.30;69.10
13976;DHT22;7062;49.792;9.946;2022-10-17T13:06:26;36.90;69.50
13976;DHT22;7062;49.792;9.946;2022-10-17T13:09:00;36.10;70.00
13976;DHT22;7062;49.792;9.946;2022-10-17T13:11:29;35.90;70.10
13976;DHT22;7062;49.792;9.946;2022-10-17T13:13:57;35.90;69.60
13976;DHT22;7062;49.792;9.946;2022-10-17T13:18:53;36.20;69.40
13976;DHT22;7062;49.792;9.946;2022-10-17T13:21:19;37.50;68.40
13976;DHT22;7062;49.792;9.946;2022-10-17T13:23:45;38.70;67.20
13976;DHT22;7062;49.792;9.946;2022-10-17T13:26:19;38.50;67.10
13976;DHT22;7062;49.792;9.946;2022-10-17T13:28:59;38.70;67.50
13976;DHT22;7062;49.792;9.946;2022-10-17T13:31:33;39.20;66.90
13976;DHT22;7062;49.792;9.946;2022-10-17T13:34:01;39.10;66.60
13976;DHT22;7062;49.792;9.946;2022-10-17T13:36:28;39.40;66.70
13976;DHT22;7062;49.792;9.946;2022-10-17T13:38:57;39.00;66.20
13976;DHT22;7062;49.792;9.946;2022-10-17T13:41:26;37.60;67.20
13976;DHT22;7062;49.792;9.946;2022-10-17T13:43:53;36.40;68.80
13976;DHT22;7062;49.792;9.946;2022-10-17T13:46:32;36.30;67.90
13976;DHT22;7062;49.792;9.946;2022-10-17T13:48:59;35.40;68.40
13976;DHT22;7062;49.792;9.946;2022-10-17T13:51:33;35.30;69.00
13976;DHT22;7062;49.792;9.946;2022-10-17T13:53:59;35.50;68.80
13976;DHT22;7062;49.792;9.946;2022-10-17T13:56:26;35.40;68.90
13976;DHT22;7062;49.792;9.946;2022-10-17T13:59:07;35.00;69.50
13976;DHT22;7062;49.792;9.946;2022-10-17T14:01:42;35.30;69.30
13976;DHT22;7062;49.792;9.946;2022-10-17T14:04:08;35.40;69.50
13976;DHT22;7062;49.792;9.946;2022-10-17T14:06:41;35.30;68.80
13976;DHT22;7062;49.792;9.946;2022-10-17T14:09:28;34.80;69.70
13976;DHT22;7062;49.792;9.946;2022-10-17T14:12:09;34.40;70.40
13976;DHT22;7062;49.792;9.946;2022-10-17T14:14:38;33.90;71.20
13976;DHT22;7062;49.792;9.946;2022-10-17T14:17:21;33.50;72.10
13976;DHT22;7062;49.792;9.946;2022-10-17T14:19:58;33.90;72.00
13976;DHT22;7062;49.792;9.946;2022-10-17T14:22:28;33.90;72.10
13976;DHT22;7062;49.792;9.946;2022-10-17T14:24:55;33.70;72.60
13976;DHT22;7062;49.792;9.946;2022-10-17T14:27:50;33.30;72.90
13976;DHT22;7062;49.792;9.946;2022-10-17T14:30:38;33.40;73.20
13976;DHT22;7062;49.792;9.946;2022-10-17T14:33:06;33.00;73.90
13976;DHT22;7062;49.792;9.946;2022-10-17T14:35:33;33.20;74.20
13976;DHT22;7062;49.792;9.946;2022-10-17T14:38:03;32.80;74.50
13976;DHT22;7062;49.792;9.946;2022-10-17T14:40:31;32.50;73.80
13976;DHT22;7062;49.792;9.946;2022-10-17T14:43:02;32.40;73.60
13976;DHT22;7062;49.792;9.946;2022-10-17T14:45:34;32.80;72.40
13976;DHT22;7062;49.792;9.946;2022-10-17T14:50:33;33.40;71.40
13976;DHT22;7062;49.792;9.946;2022-10-17T14:53:11;32.50;72.40
13976;DHT22;7062;49.792;9.946;2022-10-17T14:55:55;31.90;74.00
13976;DHT22;7062;49.792;9.946;2022-10-17T14:58:26;31.80;73.90
13976;DHT22;7062;49.792;9.946;2022-10-17T15:00:53;31.90;73.70
13976;DHT22;7062;49.792;9.946;2022-10-17T15:03:18;32.10;73.60
13976;DHT22;7062;49.792;9.946;2022-10-17T15:05:45;32.10;73.70
13976;DHT22;7062;49.792;9.946;2022-10-17T15:08:16;31.90;73.90
13976;DHT22;7062;49.792;9.946;2022-10-17T15:10:43;30.70;75.60
13976;DHT22;7062;49.792;9.946;2022-10-17T15:13:10;29.60;77.80
13976;DHT22;7062;49.792;9.946;2022-10-17T15:15:37;29.00;79.30
13976;DHT22;7062;49.792;9.946;2022-10-17T15:18:03;28.50;80.90
13976;DHT22;7062;49.792;9.946;2022-10-17T15:20:29;28.10;82.20
13976;DHT22;7062;49.792;9.946;2022-10-17T15:22:58;27.60;83.50
13976;DHT22;7062;49.792;9.946;2022-10-17T15:25:24;26.90;85.70
13976;DHT22;7062;49.792;9.946;2022-10-17T15:27:51;26.50;87.20
13976;DHT22;7062;49.792;9.946;2022-10-17T15:30:28;26.20;88.50
13976;DHT22;7062;49.792;9.946;2022-10-17T15:32:54;25.80;90.00
13976;DHT22;7062;49.792;9.946;2022-10-17T15:35:21;25.70;90.30
13976;DHT22;7062;49.792;9.946;2022-10-17T15:37:47;25.50;90.60
13976;DHT22;7062;49.792;9.946;2022-10-17T15:40:19;25.30;91.10
13976;DHT22;7062;49.792;9.946;2022-10-17T15:42:45;25.20;91.50
13976;DHT22;7062;49.792;9.946;2022-10-17T15:45:11;25.20;91.80
13976;DHT22;7062;49.792;9.946;2022-10-17T15:47:40;25.20;91.90
13976;DHT22;7062;49.792;9.946;2022-10-17T15:50:06;25.30;91.90
13976;DHT22;7062;49.792;9.946;2022-10-17T15:52:33;25.20;92.20
13976;DHT22;7062;49.792;9.946;2022-10-17T15:54:59;25.00;92.60
13976;DHT22;7062;49.792;9.946;2022-10-17T15:57:27;24.90;93.20
13976;DHT22;7062;49.792;9.946;2022-10-17T15:59:54;24.70;93.50
13976;DHT22;7062;49.792;9.946;2022-10-17T16:02:22;24.50;94.00
13976;DHT22;7062;49.792;9.946;2022-10-17T16:04:48;24.40;94.40
13976;DHT22;7062;49.792;9.946;2022-10-17T16:07:14;24.20;95.10
13976;DHT22;7062;49.792;9.946;2022-10-17T16:09:40;24.20;95.60
13976;DHT22;7062;49.792;9.946;2022-10-17T16:12:17;24.10;96.30
13976;DHT22;7062;49.792;9.946;2022-10-17T16:14:42;24.00;96.90
13976;DHT22;7062;49.792;9.946;2022-10-17T16:17:15;23.80;97.60
13976;DHT22;7062;49.792;9.946;2022-10-17T16:19:41;23.60;98.40
13976;DHT22;7062;49.792;9.946;2022-10-17T16:22:20;23.50;99.00
13976;DHT22;7062;49.792;9.946;2022-10-17T16:24:49;23.40;99.60
13976;DHT22;7062;49.792;9.946;2022-10-17T16:27:14;23.30;99.90
13976;DHT22;7062;49.792;9.946;2022-10-17T16:29:40;23.20;99.90
13976;DHT22;7062;49.792;9.946;2022-10-17T16:32:06;23.20;99.90
13976;DHT22;7062;49.792;9.946;2022-10-17T16:34:31;23.00;99.90
13976;DHT22;7062;49.792;9.946;2022-10-17T16:36:57;22.90;99.90
13976;DHT22;7062;49.792;9.946;2022-10-17T16:39:22;22.90;99.90
13976;DHT22;7062;49.792;9.946;2022-10-17T16:41:48;22.90;99.90
13976;DHT22;7062;49.792;9.946;2022-10-17T16:44:14;22.80;99.90
13976;DHT22;7062;49.792;9.946;2022-10-17T16:46:40;22.70;99.90
13976;DHT22;7062;49.792;9.946;2022-10-17T16:49:06;22.60;99.90
13976;DHT22;7062;49.792;9.946;2022-10-17T16:51:32;22.60;99.90
13976;DHT22;7062;49.792;9.946;2022-10-17T16:54:00;22.50;99.90
13976;DHT22;7062;49.792;9.946;2022-10-17T16:56:26;22.40;99.90
13976;DHT22;7062;49.792;9.946;2022-10-17T16:58:57;22.40;99.90
13976;DHT22;7062;49.792;9.946;2022-10-17T17:01:24;22.40;99.90
13976;DHT22;7062;49.792;9.946;2022-10-17T17:03:51;22.30;99.90
13976;DHT22;7062;49.792;9.946;2022-10-17T17:06:23;21.90;99.90
13976;DHT22;7062;49.792;9.946;2022-10-17T17:08:50;21.80;99.90
13976;DHT22;7062;49.792;9.946;2022-10-17T17:11:17;21.80;99.90
13976;DHT22;7062;49.792;9.946;2022-10-17T17:13:43;21.90;99.90
13976;DHT22;7062;49.792;9.946;2022-10-17T17:16:20;21.80;99.90
13976;DHT22;7062;49.792;9.946;2022-10-17T17:18:47;21.70;99.90
13976;DHT22;7062;49.792;9.946;2022-10-17T17:21:15;21.40;99.90
13976;DHT22;7062;49.792;9.946;2022-10-17T17:23:42;21.50;99.90
13976;DHT22;7062;49.792;9.946;2022-10-17T17:26:10;21.40;99.90
13976;DHT22;7062;49.792;9.946;2022-10-17T17:28:36;21.40;99.90
13976;DHT22;7062;49.792;9.946;2022-10-17T17:31:06;21.40;99.90
13976;DHT22;7062;49.792;9.946;2022-10-17T17:33:32;21.40;99.90
13976;DHT22;7062;49.792;9.946;2022-10-17T17:35:59;21.40;99.90
13976;DHT22;7062;49.792;9.946;2022-10-17T17:38:28;21.30;99.90
13976;DHT22;7062;49.792;9.946;2022-10-17T17:40:54;21.30;99.90
13976;DHT22;7062;49.792;9.946;2022-10-17T17:43:20;21.30;99.90